createdAt,value
2023-03-05T00:01:41.261Z,87.09
2023-03-05T00:04:13.714Z,87.59
2023-03-05T00:06:42.015Z,87.74
2023-03-05T00:09:10.533Z,87.68
2023-03-05T00:11:38.456Z,88.10
2023-03-05T00:14:07.311Z,88.26
2023-03-05T00:16:36.636Z,88.17
2023-03-05T00:19:05.392Z,88.53
2023-03-05T00:21:36.503Z,88.34
2023-03-05T00:24:07.644Z,88.87
2023-03-05T00:26:38.998Z,88.13
2023-03-05T00:29:09.478Z,88.53
2023-03-05T00:31:39.337Z,88.03
2023-03-05T00:34:10.166Z,87.98
2023-03-05T00:36:42.099Z,87.79
2023-03-05T00:39:10.609Z,86.77
2023-03-05T00:41:38.943Z,87.12
2023-03-05T00:44:07.512Z,86.51
2023-03-05T00:46:38.508Z,85.74
2023-03-05T00:49:06.651Z,85.42
2023-03-05T00:51:35.010Z,84.88
2023-03-05T00:54:02.966Z,84.24
2023-03-05T00:56:30.952Z,83.67
2023-03-05T00:58:58.945Z,83.05
2023-03-05T01:01:28.350Z,82.15
2023-03-05T01:03:59.532Z,82.00
2023-03-05T01:06:27.647Z,80.96
2023-03-05T01:08:56.408Z,79.81
2023-03-05T01:11:24.556Z,79.59
2023-03-05T01:13:52.476Z,78.94
2023-03-05T01:16:20.548Z,78.00
2023-03-05T01:18:48.535Z,78.17
2023-03-05T01:21:17.839Z,76.52
2023-03-05T01:23:45.875Z,75.25
2023-03-05T01:26:14.446Z,75.80
2023-03-05T01:28:42.425Z,74.80
2023-03-05T01:31:11.061Z,74.50
2023-03-05T01:33:39.286Z,74.35
2023-03-05T01:36:15.512Z,74.08
2023-03-05T01:38:47.485Z,73.67
2023-03-05T01:41:18.839Z,73.26
2023-03-05T01:43:48.524Z,71.96
2023-03-05T01:46:37.429Z,71.57
2023-03-05T01:49:15.619Z,71.33
2023-03-05T01:51:59.618Z,71.10
2023-03-05T01:54:37.776Z,71.15
2023-03-05T01:57:15.463Z,70.54
2023-03-05T01:59:49.651Z,70.56
2023-03-05T02:02:21.942Z,69.84
2023-03-05T02:04:56.029Z,69.46
2023-03-05T02:07:25.031Z,69.43
2023-03-05T02:09:54.323Z,68.91
2023-03-05T02:12:23.012Z,68.89
2023-03-05T02:14:59.257Z,68.40
2023-03-05T02:17:29.396Z,68.31
2023-03-05T02:20:06.384Z,68.11
2023-03-05T02:22:36.931Z,68.71
2023-03-05T02:25:15.587Z,68.20
2023-03-05T02:27:50.408Z,68.15
2023-03-05T02:30:19.668Z,68.16
2023-03-05T02:32:47.670Z,67.77
2023-03-05T02:35:15.984Z,67.70
2023-03-05T02:37:45.595Z,67.57
2023-03-05T02:40:15.336Z,68.08
2023-03-05T02:42:44.257Z,68.21
2023-03-05T02:45:14.064Z,68.11
2023-03-05T02:47:42.447Z,68.50
2023-03-05T02:50:13.125Z,69.16
2023-03-05T02:52:41.421Z,68.52
2023-03-05T02:55:11.401Z,68.72
2023-03-05T02:57:39.462Z,68.90
2023-03-05T03:00:09.682Z,69.09
2023-03-05T03:02:37.627Z,68.98
2023-03-05T03:05:06.899Z,68.76
2023-03-05T03:07:35.913Z,69.02
2023-03-05T03:10:03.924Z,69.10
2023-03-05T03:12:33.239Z,68.80
2023-03-05T03:15:02.457Z,69.29
2023-03-05T03:17:30.355Z,69.45
2023-03-05T03:19:58.277Z,69.23
2023-03-05T03:22:26.189Z,68.77
2023-03-05T03:24:54.600Z,69.42
2023-03-05T03:27:22.584Z,69.31
2023-03-05T03:29:51.988Z,69.44
2023-03-05T03:32:20.370Z,69.41
2023-03-05T03:34:48.953Z,69.54
2023-03-05T03:37:16.856Z,69.20
2023-03-05T03:39:44.764Z,69.55
2023-03-05T03:42:12.879Z,70.04
2023-03-05T03:44:40.780Z,70.39
2023-03-05T03:47:10.186Z,71.00
2023-03-05T03:49:38.383Z,71.21
2023-03-05T03:52:06.955Z,71.32
2023-03-05T03:54:35.660Z,71.77
2023-03-05T03:57:04.240Z,72.13
2023-03-05T03:59:32.254Z,72.54
2023-03-05T04:02:00.244Z,72.49
2023-03-05T04:04:30.335Z,72.67
2023-03-05T04:06:58.512Z,72.81
2023-03-05T04:09:26.476Z,73.66
2023-03-05T04:11:54.338Z,73.95
2023-03-05T04:14:22.515Z,74.11
2023-03-05T04:16:50.386Z,74.32
2023-03-05T04:19:18.315Z,74.65
2023-03-05T04:21:47.633Z,75.03
2023-03-05T04:24:15.518Z,75.33
2023-03-05T04:26:43.647Z,75.15
2023-03-05T04:29:11.612Z,75.67
2023-03-05T04:31:39.505Z,75.62
2023-03-05T04:34:07.509Z,76.03
2023-03-05T04:36:35.537Z,76.45
2023-03-05T04:39:05.904Z,76.46
2023-03-05T04:41:33.882Z,76.66
2023-03-05T04:44:01.839Z,76.66
2023-03-05T04:46:29.912Z,76.86
2023-03-05T04:48:59.574Z,77.29
2023-03-05T04:51:27.694Z,77.17
2023-03-05T04:53:55.635Z,77.33
2023-03-05T04:56:24.874Z,77.29
2023-03-05T04:58:53.394Z,77.19
2023-03-05T05:01:21.386Z,77.89
2023-03-05T05:03:49.431Z,77.99
2023-03-05T05:06:17.364Z,77.87
2023-03-05T05:08:45.333Z,77.54
2023-03-05T05:11:15.694Z,78.18
2023-03-05T05:13:45.000Z,78.10
2023-03-05T05:16:13.066Z,78.32
2023-03-05T05:18:41.056Z,78.16
2023-03-05T05:21:10.727Z,78.54
2023-03-05T05:23:38.893Z,78.11
2023-03-05T05:26:09.677Z,78.60
2023-03-05T05:28:38.352Z,78.98
2023-03-05T05:31:10.952Z,78.84
2023-03-05T05:33:39.230Z,79.15
2023-03-05T05:36:11.895Z,79.13
2023-03-05T05:38:40.045Z,79.64
2023-03-05T05:41:11.664Z,79.54
2023-03-05T05:43:41.642Z,79.50
2023-03-05T05:46:15.074Z,80.06
2023-03-05T05:48:44.005Z,79.32
2023-03-05T05:51:15.810Z,79.78
2023-03-05T05:53:43.951Z,79.53
2023-03-05T05:56:13.192Z,79.92
2023-03-05T05:58:43.376Z,79.56
2023-03-05T06:01:18.229Z,79.27
2023-03-05T06:03:48.988Z,79.62
2023-03-05T06:06:21.147Z,79.36
2023-03-05T06:08:49.638Z,79.67
2023-03-05T06:11:19.446Z,79.19
2023-03-05T06:13:47.690Z,79.31
2023-03-05T06:16:20.287Z,78.97
2023-03-05T06:18:48.459Z,79.24
2023-03-05T06:21:20.245Z,79.60
2023-03-05T06:23:49.938Z,79.26
2023-03-05T06:26:21.407Z,78.87
2023-03-05T06:28:50.167Z,78.94
2023-03-05T06:31:22.981Z,79.18
2023-03-05T06:33:51.588Z,78.57
2023-03-05T06:36:22.857Z,77.85
2023-03-05T06:38:53.133Z,78.00
2023-03-05T06:41:25.686Z,77.22
2023-03-05T06:43:54.366Z,77.56
2023-03-05T06:46:26.713Z,77.32
2023-03-05T06:48:58.103Z,77.59
2023-03-05T06:51:29.264Z,77.47
2023-03-05T06:54:01.706Z,76.81
2023-03-05T06:56:29.916Z,76.10
2023-03-05T06:58:58.286Z,76.56
2023-03-05T07:01:27.735Z,76.07
2023-03-05T07:03:58.844Z,75.99
2023-03-05T07:06:28.560Z,75.51
2023-03-05T07:08:57.937Z,75.50
2023-03-05T07:11:26.425Z,75.36
2023-03-05T07:13:54.492Z,74.43
2023-03-05T07:16:25.347Z,75.05
2023-03-05T07:18:57.380Z,74.87
2023-03-05T07:21:28.079Z,74.27
2023-03-05T07:23:58.120Z,74.54
2023-03-05T07:26:26.715Z,74.47
2023-03-05T07:28:55.097Z,74.64
2023-03-05T07:31:27.405Z,74.33
2023-03-05T07:33:56.885Z,73.86
2023-03-05T07:36:25.491Z,73.86
2023-03-05T07:38:53.674Z,73.61
2023-03-05T07:41:23.405Z,73.56
2023-03-05T07:43:54.110Z,73.41
2023-03-05T07:46:26.070Z,73.54
2023-03-05T07:48:55.805Z,72.88
2023-03-05T07:51:26.031Z,72.59
2023-03-05T07:53:57.369Z,72.28
2023-03-05T07:56:28.901Z,72.99
2023-03-05T07:58:56.870Z,72.82
2023-03-05T08:01:24.919Z,72.28
2023-03-05T08:03:52.904Z,71.55
2023-03-05T08:06:22.404Z,71.71
2023-03-05T08:08:50.371Z,71.66
2023-03-05T08:11:18.415Z,70.67
2023-03-05T08:13:49.312Z,70.91
2023-03-05T08:16:21.231Z,70.08
2023-03-05T08:18:49.624Z,70.42
2023-03-05T08:21:19.881Z,70.05
2023-03-05T08:23:49.877Z,69.37
2023-03-05T08:26:22.241Z,68.73
2023-03-05T08:28:50.801Z,68.11
2023-03-05T08:31:22.218Z,68.24
2023-03-05T08:33:51.170Z,67.21
2023-03-05T08:36:19.180Z,66.67
2023-03-05T08:38:48.464Z,66.74
2023-03-05T08:41:20.076Z,66.63
2023-03-05T08:43:48.472Z,66.05
2023-03-05T08:46:17.915Z,65.41
2023-03-05T08:48:46.315Z,65.00
2023-03-05T08:51:16.973Z,65.39
2023-03-05T08:53:47.022Z,64.49
2023-03-05T08:56:17.376Z,64.79
2023-03-05T08:58:47.271Z,64.00
2023-03-05T09:01:17.526Z,63.13
2023-03-05T09:03:45.962Z,61.94
2023-03-05T09:06:14.073Z,60.83
2023-03-05T09:08:42.589Z,61.23
2023-03-05T09:11:14.400Z,60.58
2023-03-05T09:13:44.018Z,61.03
2023-03-05T09:16:15.004Z,60.21
2023-03-05T09:18:43.258Z,59.83
2023-03-05T09:21:14.726Z,60.02
2023-03-05T09:23:44.301Z,60.33
2023-03-05T09:26:15.552Z,60.31
2023-03-05T09:28:44.923Z,61.00
2023-03-05T09:31:13.672Z,61.70
2023-03-05T09:33:44.744Z,62.00
2023-03-05T09:36:22.675Z,62.71
2023-03-05T09:38:51.100Z,62.31
2023-03-05T09:41:34.426Z,62.57
2023-03-05T09:44:22.909Z,62.21
2023-03-05T09:46:56.355Z,61.44
2023-03-05T09:49:39.711Z,60.90
2023-03-05T09:52:19.567Z,60.67
2023-03-05T09:54:54.713Z,60.64
2023-03-05T09:57:32.013Z,60.70
2023-03-05T10:00:27.127Z,60.05
2023-03-05T10:03:02.585Z,59.29
2023-03-05T10:05:51.757Z,59.55
2023-03-05T10:08:31.097Z,59.89
2023-03-05T10:11:03.867Z,59.71
2023-03-05T10:13:40.364Z,59.59
2023-03-05T10:16:37.687Z,60.06
2023-03-05T10:19:20.803Z,60.36
2023-03-05T10:21:58.188Z,59.44
2023-03-05T10:24:42.586Z,58.25
2023-03-05T10:27:21.335Z,57.84
2023-03-05T10:30:12.761Z,59.22
2023-03-05T10:32:54.409Z,61.26
2023-03-05T10:35:53.175Z,62.05
2023-03-05T10:38:52.553Z,62.55
2023-03-05T10:41:34.347Z,62.34
2023-03-05T10:44:12.608Z,63.09
2023-03-05T10:46:41.929Z,63.54
2023-03-05T10:49:21.382Z,62.89
2023-03-05T10:52:12.204Z,63.05
2023-03-05T10:54:44.130Z,62.81
2023-03-05T10:57:20.203Z,63.53
2023-03-05T10:59:54.089Z,62.94
2023-03-05T11:02:24.389Z,63.15
2023-03-05T11:04:55.453Z,63.41
2023-03-05T11:07:39.197Z,63.40
2023-03-05T11:10:21.334Z,62.99
2023-03-05T11:12:50.135Z,62.93
2023-03-05T11:15:31.343Z,63.52
2023-03-05T11:18:19.605Z,63.64
2023-03-05T11:20:50.176Z,64.17
2023-03-05T11:23:21.008Z,63.70
2023-03-05T11:26:02.165Z,63.59
2023-03-05T11:28:37.587Z,63.69
2023-03-05T11:31:21.804Z,64.05
2023-03-05T11:34:00.715Z,64.24
2023-03-05T11:36:33.906Z,64.93
2023-03-05T11:39:13.012Z,64.77
2023-03-05T11:41:45.897Z,63.98
2023-03-05T11:44:20.528Z,64.31
2023-03-05T11:46:53.655Z,62.97
2023-03-05T11:49:26.946Z,62.17
2023-03-05T11:52:08.190Z,60.94
2023-03-05T11:54:53.124Z,60.61
2023-03-05T11:57:25.972Z,59.37
2023-03-05T11:59:59.031Z,57.96
2023-03-05T12:02:28.968Z,58.00
2023-03-05T12:04:59.600Z,57.48
2023-03-05T12:07:51.419Z,57.55
2023-03-05T12:10:23.823Z,57.71
2023-03-05T12:13:05.338Z,58.26
2023-03-05T12:15:49.197Z,58.40
2023-03-05T12:18:33.982Z,56.76
2023-03-05T12:21:15.615Z,56.32
2023-03-05T12:23:51.931Z,56.89
2023-03-05T12:26:41.916Z,57.25
2023-03-05T12:29:31.079Z,57.45
2023-03-05T12:32:00.876Z,58.12
2023-03-05T12:34:57.429Z,57.89
2023-03-05T12:38:24.318Z,57.72
2023-03-05T12:40:56.854Z,57.84
2023-03-05T12:43:35.111Z,57.66
2023-03-05T12:46:29.357Z,57.28
2023-03-05T12:48:57.525Z,56.52
2023-03-05T12:51:36.170Z,55.79
2023-03-05T12:54:36.577Z,54.71
2023-03-05T12:57:16.116Z,54.07
2023-03-05T12:59:51.457Z,51.67
2023-03-05T13:02:30.182Z,51.83
2023-03-05T13:05:03.854Z,52.74
2023-03-05T13:07:31.970Z,53.58
2023-03-05T13:10:01.127Z,53.86
2023-03-05T13:12:31.425Z,54.57
2023-03-05T13:15:06.075Z,53.90
2023-03-05T13:17:44.352Z,53.89
2023-03-05T13:20:37.693Z,54.45
2023-03-05T13:23:20.572Z,54.07
2023-03-05T13:26:01.469Z,55.66
2023-03-05T13:28:31.237Z,57.55
2023-03-05T13:31:03.659Z,56.97
2023-03-05T13:33:35.519Z,58.20
2023-03-05T13:36:05.636Z,58.04
2023-03-05T13:38:41.701Z,57.27
2023-03-05T13:41:22.954Z,55.91
2023-03-05T13:43:54.397Z,55.82
2023-03-05T13:46:33.154Z,56.06
2023-03-05T13:49:23.436Z,55.50
2023-03-05T13:52:00.114Z,54.75
2023-03-05T13:54:33.729Z,54.82
2023-03-05T13:57:07.172Z,54.50
2023-03-05T13:59:39.085Z,53.88
2023-03-05T14:02:19.802Z,53.66
2023-03-05T14:04:49.815Z,52.41
2023-03-05T14:07:32.013Z,51.90
2023-03-05T14:10:05.590Z,51.37
2023-03-05T14:12:40.228Z,51.74
2023-03-05T14:15:26.551Z,53.61
2023-03-05T14:18:09.486Z,55.77
2023-03-05T14:20:39.885Z,55.94
2023-03-05T14:23:34.078Z,56.90
2023-03-05T14:26:33.351Z,57.30
2023-03-05T14:29:04.397Z,57.61
2023-03-05T14:31:48.857Z,57.55
2023-03-05T14:34:27.544Z,58.60
2023-03-05T14:37:02.864Z,58.21
2023-03-05T14:39:41.132Z,58.19
2023-03-05T14:42:31.611Z,57.89
2023-03-05T14:45:02.566Z,58.61
2023-03-05T14:47:30.710Z,59.88
2023-03-05T14:49:58.728Z,60.52
2023-03-05T14:52:28.303Z,60.79
2023-03-05T14:54:56.244Z,61.50
2023-03-05T14:57:32.461Z,61.78
2023-03-05T15:00:03.728Z,62.65
2023-03-05T15:02:31.769Z,62.69
2023-03-05T15:04:59.792Z,63.01
2023-03-05T15:07:33.274Z,62.80
2023-03-05T15:10:01.408Z,62.13
2023-03-05T15:12:32.146Z,62.60
2023-03-05T15:15:00.101Z,62.89
2023-03-05T15:17:42.399Z,62.95
2023-03-05T15:20:17.506Z,63.45
2023-03-05T15:22:48.478Z,63.92
2023-03-05T15:25:16.854Z,64.20
2023-03-05T15:27:46.489Z,63.92
2023-03-05T15:30:23.466Z,64.40
2023-03-05T15:32:53.680Z,64.08
2023-03-05T15:35:23.079Z,64.52
2023-03-05T15:37:53.167Z,65.44
2023-03-05T15:40:22.373Z,65.59
2023-03-05T15:42:51.220Z,65.62
2023-03-05T15:45:19.365Z,65.68
2023-03-05T15:47:50.033Z,66.10
2023-03-05T15:50:19.134Z,66.40
2023-03-05T15:52:48.917Z,66.85
2023-03-05T15:55:21.946Z,66.96
2023-03-05T15:57:57.266Z,67.19
2023-03-05T16:00:32.062Z,66.98
2023-03-05T16:03:00.056Z,67.45
2023-03-05T16:05:28.220Z,67.78
2023-03-05T16:07:57.103Z,67.32
2023-03-05T16:10:30.397Z,67.47
2023-03-05T16:13:04.151Z,67.74
2023-03-05T16:15:36.294Z,67.54
2023-03-05T16:18:11.626Z,67.44
2023-03-05T16:20:39.777Z,67.17
2023-03-05T16:23:08.662Z,67.28
2023-03-05T16:25:41.078Z,68.18
2023-03-05T16:28:10.468Z,67.70
2023-03-05T16:30:39.888Z,67.70
2023-03-05T16:33:07.973Z,67.46
2023-03-05T16:35:36.040Z,68.19
2023-03-05T16:38:05.120Z,67.61
2023-03-05T16:41:05.617Z,68.64
2023-03-05T16:43:26.667Z,68.80
2023-03-05T16:45:54.608Z,69.01
2023-03-05T16:48:22.713Z,69.49
2023-03-05T16:50:50.684Z,69.73
2023-03-05T16:53:18.718Z,70.23
2023-03-05T16:55:46.645Z,70.42
2023-03-05T16:58:14.672Z,70.81
2023-03-05T17:00:44.157Z,70.91
2023-03-05T17:03:11.932Z,71.09
2023-03-05T17:05:40.110Z,70.79
2023-03-05T17:08:08.790Z,71.13
2023-03-05T17:10:36.871Z,71.01
2023-03-05T17:13:05.639Z,70.92
2023-03-05T17:15:34.323Z,71.03
2023-03-05T17:18:03.891Z,71.09
2023-03-05T17:20:33.397Z,71.25
2023-03-05T17:23:02.142Z,71.48
2023-03-05T17:25:30.418Z,72.15
2023-03-05T17:27:58.419Z,72.17
2023-03-05T17:30:26.458Z,72.01
2023-03-05T17:32:57.737Z,71.71
2023-03-05T17:35:27.863Z,71.95
2023-03-05T17:53:07.149Z,71.86
2023-03-05T17:55:44.191Z,71.54
2023-03-05T17:58:31.833Z,72.05
2023-03-05T18:01:15.304Z,72.26
2023-03-05T18:03:51.328Z,72.72
2023-03-05T18:06:19.533Z,72.62
2023-03-05T18:08:47.798Z,72.95
2023-03-05T18:11:17.463Z,72.88
2023-03-05T18:13:45.913Z,73.21
2023-03-05T18:16:16.789Z,74.58
2023-03-05T18:18:46.895Z,75.03
2023-03-05T18:21:21.009Z,73.01
2023-03-05T18:23:50.970Z,74.42
2023-03-05T18:26:20.636Z,73.86
2023-03-05T18:28:48.518Z,74.09
2023-03-05T18:31:16.477Z,74.40
2023-03-05T18:33:50.961Z,74.00
2023-03-05T18:36:19.519Z,74.04
2023-03-05T18:38:47.566Z,74.07
2023-03-05T18:41:27.789Z,74.18
2023-03-05T18:43:56.222Z,74.64
2023-03-05T18:46:24.633Z,74.45
2023-03-05T18:48:52.680Z,74.22
2023-03-05T18:51:24.855Z,74.59
2023-03-05T18:53:56.431Z,74.36
2023-03-05T18:56:26.712Z,74.57
2023-03-05T18:58:54.692Z,74.60
2023-03-05T19:01:23.284Z,74.30
2023-03-05T19:03:51.452Z,74.66
2023-03-05T19:06:20.073Z,74.62
2023-03-05T19:08:50.764Z,74.43
2023-03-05T19:11:21.846Z,74.68
2023-03-05T19:13:53.490Z,74.39
2023-03-05T19:16:24.887Z,74.53
2023-03-05T19:19:06.297Z,74.76
2023-03-05T19:21:34.235Z,74.89
2023-03-05T19:24:02.390Z,75.09
2023-03-05T19:26:31.074Z,75.58
2023-03-05T19:29:02.137Z,75.43
2023-03-05T19:31:30.598Z,75.40
2023-03-05T19:34:01.275Z,76.21
2023-03-05T19:36:29.768Z,75.79
2023-03-05T19:39:00.271Z,76.15
2023-03-05T19:41:31.093Z,76.35
2023-03-05T19:44:00.474Z,76.42
2023-03-05T19:46:28.652Z,76.39
2023-03-05T19:48:56.724Z,76.58
2023-03-05T19:51:28.335Z,76.93
2023-03-05T19:53:56.591Z,77.13
2023-03-05T19:56:27.589Z,77.50
2023-03-05T19:58:55.718Z,77.78
2023-03-05T20:01:28.647Z,80.98
2023-03-05T20:03:59.827Z,79.78
2023-03-05T20:06:31.272Z,79.86
2023-03-05T20:09:00.184Z,77.85
2023-03-05T20:11:29.290Z,78.12
2023-03-05T20:13:57.669Z,77.95
2023-03-05T20:16:29.701Z,79.07
2023-03-05T20:19:00.138Z,79.18
2023-03-05T20:21:31.113Z,79.91
2023-03-05T20:24:03.224Z,79.85
2023-03-05T20:26:32.240Z,80.01
2023-03-05T20:29:00.300Z,80.23
2023-03-05T20:31:30.053Z,80.47
2023-03-05T20:37:21.317Z,80.23
2023-03-05T20:39:50.961Z,80.48
2023-03-05T20:42:18.876Z,80.30
2023-03-05T20:44:50.463Z,80.14
2023-03-05T20:47:32.363Z,80.04
2023-03-05T20:50:00.291Z,80.47
2023-03-05T20:52:28.328Z,80.32
2023-03-05T20:54:56.507Z,80.53
2023-03-05T20:57:24.524Z,80.53
2023-03-05T20:59:52.451Z,80.39
2023-03-05T21:02:21.805Z,80.41
2023-03-05T21:04:49.804Z,80.87
2023-03-05T21:07:20.463Z,81.32
2023-03-05T21:09:48.427Z,81.50
2023-03-05T21:12:16.336Z,82.26
2023-03-05T21:14:44.242Z,82.49
2023-03-05T21:17:12.265Z,83.02
2023-03-05T21:19:41.601Z,83.58
2023-03-05T21:22:09.596Z,83.31
2023-03-05T21:24:52.147Z,83.96
2023-03-05T21:27:20.163Z,84.69
2023-03-05T21:29:48.137Z,84.83
2023-03-05T21:32:16.075Z,84.77
2023-03-05T21:34:45.719Z,85.43
2023-03-05T21:37:13.757Z,85.33
2023-03-05T21:39:41.700Z,85.92
2023-03-05T21:42:11.576Z,85.83
2023-03-05T21:44:39.849Z,85.68
2023-03-05T21:47:07.783Z,86.07
2023-03-05T21:49:35.887Z,86.46
2023-03-05T21:52:09.299Z,87.00
2023-03-05T21:54:37.644Z,87.14
2023-03-05T21:57:07.060Z,87.39
2023-03-05T21:59:35.337Z,88.23
2023-03-05T22:02:03.543Z,88.30
2023-03-05T22:04:31.453Z,88.64
2023-03-05T22:06:59.385Z,88.73
2023-03-05T22:09:28.762Z,88.57
2023-03-05T22:11:56.733Z,88.47
2023-03-05T22:14:25.003Z,89.06
2023-03-05T22:16:53.612Z,89.06
2023-03-05T22:19:21.971Z,89.69
2023-03-05T22:21:49.977Z,89.44
2023-03-05T22:24:17.863Z,89.45
2023-03-05T22:26:47.241Z,89.79
2023-03-05T22:29:16.810Z,89.85
2023-03-05T22:31:45.273Z,89.91
2023-03-05T22:34:13.197Z,89.85
2023-03-05T22:36:41.216Z,90.12
2023-03-05T22:39:09.213Z,90.62
2023-03-05T22:41:37.228Z,90.49
2023-03-05T22:44:06.464Z,90.11
2023-03-05T22:46:34.548Z,90.39
2023-03-05T22:49:02.464Z,90.48
2023-03-05T22:51:31.041Z,90.46
2023-03-05T22:53:59.029Z,90.37
2023-03-05T22:56:27.048Z,90.15
2023-03-05T22:58:55.039Z,90.04
2023-03-05T23:01:27.433Z,90.25
2023-03-05T23:04:03.559Z,90.19
2023-03-05T23:06:31.549Z,90.30
2023-03-05T23:08:59.467Z,90.70
2023-03-05T23:11:27.410Z,90.51
2023-03-05T23:13:55.336Z,90.28
2023-03-05T23:16:24.605Z,90.69
2023-03-05T23:18:52.585Z,90.77
2023-03-05T23:21:20.511Z,91.25
2023-03-05T23:23:48.498Z,90.93
2023-03-05T23:26:16.476Z,90.81
2023-03-05T23:28:44.419Z,90.26
2023-03-05T23:31:12.350Z,90.88
2023-03-05T23:33:41.703Z,90.95
2023-03-05T23:36:10.244Z,90.90
2023-03-05T23:38:38.283Z,90.62
2023-03-05T23:41:10.471Z,90.59
2023-03-05T23:43:38.487Z,90.47
2023-03-05T23:46:12.400Z,90.52
2023-03-05T23:48:42.966Z,90.61
2023-03-05T23:51:12.247Z,90.40
2023-03-05T23:53:40.164Z,90.63
2023-03-05T23:56:12.682Z,90.73
2023-03-05T23:58:42.538Z,91.24
